Time;durP1;ratioP1;P1;durP2;ratioP2;P2;SDS_P1;SDS_P2;PMS_P1;PMS_P2;Temp;Humidity;BMP_temperature;BMP_pressure;BME280_temperature;BME280_humidity;BME280_pressure;Samples;Min_cycle;Max_cycle;Signal;HPM_P1;HPM_P2
2022/04/14 00:01:09;;;;;;;15.52;9.63;;;;;;;15.43;66.23;99034.13;4993652;28;20053;-81
2022/04/14 00:03:34;;;;;;;16.73;9.82;;;;;;;15.39;66.55;99033.88;4993606;28;20046;-80
2022/04/14 00:05:59;;;;;;;15.30;9.70;;;;;;;15.48;65.88;99034.16;5007193;28;20512;-80
2022/04/14 00:08:25;;;;;;;17.50;10.60;;;;;;;15.44;66.22;99041.94;4995664;28;20125;-80
2022/04/14 00:10:50;;;;;;;16.02;11.68;;;;;;;15.48;66.90;99031.47;4993234;28;20042;-80
2022/04/14 00:13:16;;;;;;;16.48;11.32;;;;;;;15.39;67.12;99035.75;5006822;28;20104;-80
2022/04/14 00:15:42;;;;;;;18.25;11.48;;;;;;;15.41;67.34;99044.34;5019366;28;20587;-81
2022/04/14 00:18:07;;;;;;;18.58;11.93;;;;;;;15.38;67.08;99029.56;5005749;28;20041;-80
2022/04/14 00:20:32;;;;;;;18.02;11.43;;;;;;;15.36;68.23;99030.91;5008167;28;20038;-80
2022/04/14 00:22:59;;;;;;;16.52;11.52;;;;;;;15.36;68.09;99042.50;5006214;28;20312;-80
2022/04/14 00:25:25;;;;;;;15.43;12.27;;;;;;;15.23;68.56;99042.25;5006705;28;20026;-80
2022/04/14 00:27:50;;;;;;;21.15;14.27;;;;;;;15.30;68.20;99027.47;5001940;28;20037;-80
2022/04/14 00:30:15;;;;;;;19.48;13.30;;;;;;;15.28;68.26;99023.44;4990629;28;20038;-80
2022/04/14 00:32:41;;;;;;;15.20;11.90;;;;;;;15.27;68.17;99027.19;5005861;28;20048;-81
2022/04/14 00:35:06;;;;;;;23.63;13.40;;;;;;;15.24;69.43;99035.81;5007007;28;20121;-80
2022/04/14 00:37:32;;;;;;;21.17;13.38;;;;;;;15.21;68.73;99025.59;5004149;28;20501;-80
2022/04/14 00:39:57;;;;;;;20.25;12.45;;;;;;;15.27;69.24;99032.56;4990815;28;20485;-81
2022/04/14 00:42:23;;;;;;;19.88;16.20;;;;;;;15.23;69.18;99031.50;5020533;28;20121;-80
2022/04/14 00:44:48;;;;;;;23.35;15.75;;;;;;;15.20;69.22;99046.28;5010269;28;20041;-80
2022/04/14 00:47:15;;;;;;;28.17;18.52;;;;;;;15.14;69.54;99050.09;5010653;28;20040;-80
2022/04/14 00:49:41;;;;;;;27.58;19.17;;;;;;;15.12;69.81;99044.19;5004576;28;20038;-80
2022/04/14 00:52:07;;;;;;;29.10;18.88;;;;;;;15.13;70.79;99053.06;5004624;28;20088;-80
2022/04/14 00:54:33;;;;;;;31.45;18.60;;;;;;;15.06;71.38;99053.34;5005121;28;20059;-80
2022/04/14 00:56:59;;;;;;;26.30;18.73;;;;;;;15.06;70.86;99056.03;5015147;28;20132;-81
2022/04/14 00:59:25;;;;;;;27.63;19.48;;;;;;;15.06;71.01;99047.97;5001820;28;20040;-81
2022/04/14 01:01:51;;;;;;;30.75;21.73;;;;;;;15.14;70.28;99043.91;5016875;28;20033;-80
2022/04/14 01:04:17;;;;;;;31.20;21.95;;;;;;;15.17;70.36;99046.84;4986166;28;20069;-80
2022/04/14 01:06:44;;;;;;;29.17;21.08;;;;;;;15.08;69.89;99045.00;5017827;28;20052;-81
2022/04/14 01:09:16;;;;;;;33.22;21.95;;;;;;;15.11;70.44;99058.72;5000973;28;20042;-81
2022/04/14 01:11:45;;;;;;;40.92;22.45;;;;;;;15.11;70.54;99050.66;5006169;28;20030;-81
2022/04/14 01:14:27;;;;;;;36.95;23.33;;;;;;;15.15;71.19;99064.34;5006815;28;20406;-81
2022/04/14 01:16:53;;;;;;;34.67;22.95;;;;;;;15.02;71.48;99065.72;5006419;28;20052;-81
2022/04/14 01:19:19;;;;;;;33.40;22.33;;;;;;;15.01;71.36;99069.47;4990915;28;20045;-80
2022/04/14 01:21:50;;;;;;;38.15;23.88;;;;;;;14.99;71.48;99066.25;5020399;28;20041;-81
2022/04/14 01:24:15;;;;;;;32.80;24.25;;;;;;;14.96;71.31;99058.75;5004415;28;20030;-80
2022/04/14 01:26:40;;;;;;;35.85;23.05;;;;;;;14.91;71.33;99064.94;5000657;28;20037;-80
2022/04/14 01:29:18;;;;;;;38.58;25.85;;;;;;;14.93;70.88;99061.97;5013582;28;20039;-80
2022/04/14 01:31:43;;;;;;;34.63;24.55;;;;;;;14.93;71.48;99064.66;5018554;28;20037;-80
2022/04/14 01:34:08;;;;;;;36.88;24.05;;;;;;;15.03;71.39;99075.38;5014109;28;20034;-81
2022/04/14 01:36:34;;;;;;;37.08;24.67;;;;;;;14.94;71.62;99071.63;5002501;28;20042;-80
2022/04/14 01:38:59;;;;;;;37.17;23.70;;;;;;;14.90;71.15;99074.06;4996826;28;20394;-80
2022/04/14 01:41:24;;;;;;;41.25;28.50;;;;;;;14.97;71.32;99085.34;5013381;28;20109;-80
2022/04/14 01:43:49;;;;;;;36.80;24.27;;;;;;;14.91;71.77;99083.75;4984952;28;20049;-80
2022/04/14 01:46:15;;;;;;;37.83;24.20;;;;;;;14.88;71.63;99081.59;5006036;28;20116;-81
2022/04/14 01:48:40;;;;;;;36.33;25.70;;;;;;;14.86;71.43;99089.13;5022019;28;20262;-81
2022/04/14 01:51:06;;;;;;;36.38;23.90;;;;;;;14.86;71.33;99093.69;5009090;28;20064;-81
2022/04/14 01:53:31;;;;;;;32.83;24.08;;;;;;;14.77;70.94;99092.59;5005781;28;20034;-81
2022/04/14 01:55:57;;;;;;;31.77;21.95;;;;;;;14.82;70.96;99106.88;4992873;28;20037;-81
2022/04/14 01:58:22;;;;;;;33.72;22.13;;;;;;;14.77;71.08;99106.03;4996687;28;20563;-81
2022/04/14 02:00:47;;;;;;;40.67;23.75;;;;;;;14.78;71.05;99097.72;4991499;28;20026;-81
2022/04/14 02:03:12;;;;;;;33.47;22.88;;;;;;;14.79;70.75;99099.31;5009219;28;20409;-80
2022/04/14 02:05:38;;;;;;;35.80;21.95;;;;;;;14.80;71.03;99106.31;5012791;28;20061;-80
2022/04/14 02:08:03;;;;;;;30.20;21.08;;;;;;;14.73;71.02;99102.28;4993129;28;20038;-80
2022/04/14 02:10:29;;;;;;;31.70;22.13;;;;;;;14.72;70.71;99104.16;4993628;28;20033;-81
2022/04/14 02:12:54;;;;;;;36.58;23.15;;;;;;;14.76;71.21;99099.06;4992530;28;20508;-81
2022/04/14 02:15:19;;;;;;;30.75;22.45;;;;;;;14.69;70.90;99096.66;5022450;28;20045;-81
2022/04/14 02:17:45;;;;;;;31.33;23.90;;;;;;;14.77;70.95;99100.66;5008159;28;20037;-81
2022/04/14 02:20:10;;;;;;;35.05;22.58;;;;;;;14.73;70.46;99097.72;5007773;28;20489;-81
2022/04/14 02:22:40;;;;;;;43.17;24.63;;;;;;;14.70;70.75;99095.56;5010028;28;20486;-80
2022/04/14 02:25:06;;;;;;;34.38;23.50;;;;;;;14.69;70.78;99096.66;5007506;28;20030;-81
2022/04/14 02:27:31;;;;;;;37.30;23.55;;;;;;;14.68;70.82;99099.59;5005510;28;20041;-81
2022/04/14 02:29:57;;;;;;;31.50;22.20;;;;;;;14.55;70.76;99087.50;5007279;28;20116;-81
2022/04/14 02:32:22;;;;;;;35.47;23.13;;;;;;;14.59;70.55;99099.31;5004328;28;20057;-81
2022/04/14 02:34:47;;;;;;;38.70;23.65;;;;;;;14.61;70.36;99093.69;4991000;28;20382;-81
2022/04/14 02:37:13;;;;;;;36.88;22.75;;;;;;;14.53;71.23;99099.59;4975942;28;20128;-80
2022/04/14 02:39:39;;;;;;;34.15;22.23;;;;;;;14.51;71.32;99089.13;5007782;28;20025;-81
2022/04/14 02:42:05;;;;;;;32.80;21.85;;;;;;;14.66;70.97;99097.19;5005953;28;20037;-81
2022/04/14 02:44:30;;;;;;;36.45;22.85;;;;;;;14.55;70.70;99092.88;4993499;28;20037;-81
2022/04/14 02:46:55;;;;;;;42.63;26.02;;;;;;;14.58;70.63;99088.84;5007383;28;20048;-81
2022/04/14 02:49:21;;;;;;;41.75;24.20;;;;;;;14.55;70.92;99092.88;5008458;28;20029;-80
2022/04/14 02:51:47;;;;;;;34.28;22.38;;;;;;;14.46;71.17;99091.00;5006101;28;20379;-81
2022/04/14 02:54:12;;;;;;;42.50;25.08;;;;;;;14.47;70.90;99084.53;5017879;28;20187;-81
2022/04/14 02:56:37;;;;;;;34.85;21.02;;;;;;;14.49;70.66;99095.81;5020273;28;20037;-81
2022/04/14 02:59:02;;;;;;;41.10;23.65;;;;;;;14.57;70.57;99087.25;4991424;28;20041;-81
2022/04/14 03:01:28;;;;;;;36.78;25.10;;;;;;;14.53;70.69;99092.34;4990768;28;20062;-81
2022/04/14 03:03:53;;;;;;;34.38;22.80;;;;;;;14.53;71.00;99097.72;5006277;28;20034;-81
2022/04/14 03:06:18;;;;;;;36.85;24.48;;;;;;;14.41;71.23;99091.00;5006006;28;20160;-81
2022/04/14 03:08:44;;;;;;;31.33;23.10;;;;;;;14.48;70.76;99095.00;5004013;28;20203;-81
2022/04/14 03:11:10;;;;;;;36.80;24.45;;;;;;;14.39;71.00;99088.59;5003199;28;20037;-81
2022/04/14 03:13:35;;;;;;;36.15;24.52;;;;;;;14.42;71.11;99081.84;4990044;28;20041;-81
2022/04/14 03:16:00;;;;;;;41.80;24.42;;;;;;;14.45;71.24;99090.19;5003981;28;20045;-81
2022/04/14 03:18:26;;;;;;;43.15;25.13;;;;;;;14.37;71.05;99084.53;4992275;28;20041;-81
2022/04/14 03:20:51;;;;;;;38.40;25.48;;;;;;;14.38;71.04;99089.63;4971231;28;20030;-80
2022/04/14 03:23:16;;;;;;;34.13;24.35;;;;;;;14.28;71.55;99095.75;5004272;28;20037;-81
2022/04/14 03:25:42;;;;;;;36.72;24.15;;;;;;;14.26;71.51;99092.53;5006939;28;20041;-81
2022/04/14 03:28:07;;;;;;;42.53;25.20;;;;;;;14.28;71.35;99100.34;5001827;28;20037;-81
2022/04/14 03:30:32;;;;;;;34.72;24.77;;;;;;;14.32;71.05;99096.09;5007436;28;20034;-81
2022/04/14 03:32:58;;;;;;;35.08;26.15;;;;;;;14.22;71.24;99093.34;5005860;28;20026;-81
2022/04/14 03:35:23;;;;;;;37.38;25.33;;;;;;;14.20;71.49;99095.47;5004833;28;20037;-80
2022/04/14 03:37:48;;;;;;;43.38;25.20;;;;;;;14.29;70.94;99107.34;5007228;28;20125;-81
2022/04/14 03:40:14;;;;;;;45.72;26.05;;;;;;;14.21;71.03;99099.78;5003817;28;20042;-80
2022/04/14 03:42:39;;;;;;;42.58;27.33;;;;;;;14.19;71.16;99104.63;5004358;28;20029;-81
2022/04/14 03:45:06;;;;;;;36.25;23.85;;;;;;;14.21;71.40;99103.28;5003465;28;20117;-81
2022/04/14 03:47:32;;;;;;;35.33;24.38;;;;;;;14.17;71.38;99104.09;4991054;28;20037;-81
2022/04/14 03:49:57;;;;;;;38.92;23.92;;;;;;;14.12;71.53;99109.44;4999236;28;20128;-81
2022/04/14 03:52:23;;;;;;;38.72;25.42;;;;;;;14.23;71.11;99111.88;5004989;28;20085;-81
2022/04/14 03:54:48;;;;;;;36.58;23.90;;;;;;;14.16;71.65;99110.50;4986082;28;20092;-81
2022/04/14 03:57:13;;;;;;;37.60;24.90;;;;;;;14.17;71.66;99106.75;5005903;28;20057;-81
2022/04/14 03:59:38;;;;;;;39.60;23.75;;;;;;;14.15;71.59;99119.66;5006038;28;20040;-81
2022/04/14 04:02:04;;;;;;;41.00;26.17;;;;;;;14.23;71.21;99121.81;5016945;28;20029;-81
2022/04/14 04:04:31;;;;;;;37.13;25.10;;;;;;;14.18;71.37;99125.28;5005076;28;20080;-81
2022/04/14 04:06:57;;;;;;;36.30;25.20;;;;;;;14.16;71.60;99118.56;5007900;28;20079;-81
2022/04/14 04:09:22;;;;;;;34.80;23.85;;;;;;;14.15;71.11;99120.44;5021843;28;20497;-80
2022/04/14 04:11:47;;;;;;;37.75;24.17;;;;;;;14.11;71.33;99121.22;5007451;28;20125;-81
2022/04/14 04:14:13;;;;;;;36.53;24.90;;;;;;;14.12;71.92;99125.53;5006235;28;20026;-81
2022/04/14 04:16:38;;;;;;;35.00;23.02;;;;;;;14.07;71.74;99125.50;5006462;28;20061;-81
2022/04/14 04:19:03;;;;;;;38.95;25.52;;;;;;;14.11;71.46;99135.47;5019693;28;20049;-81
2022/04/14 04:21:30;;;;;;;38.47;23.88;;;;;;;14.07;71.81;99131.69;5003554;28;20458;-81
2022/04/14 04:23:55;;;;;;;35.10;23.55;;;;;;;14.11;71.81;99129.28;5004281;28;20128;-81
2022/04/14 04:26:21;;;;;;;38.70;24.75;;;;;;;14.10;71.37;99130.38;5018872;28;20113;-81
2022/04/14 04:28:46;;;;;;;36.75;23.73;;;;;;;14.11;72.17;99113.97;5006348;28;20084;-81
2022/04/14 04:31:11;;;;;;;32.45;23.35;;;;;;;14.01;72.17;99123.88;5006070;28;20113;-81
2022/04/14 04:33:37;;;;;;;35.67;22.67;;;;;;;14.09;71.72;99120.69;5005696;28;20038;-80
2022/04/14 04:36:02;;;;;;;39.05;21.70;;;;;;;14.00;72.20;99116.91;5007721;28;20069;-81
2022/04/14 04:38:28;;;;;;;33.35;21.20;;;;;;;14.05;71.84;99119.59;5005077;28;20030;-81
2022/04/14 04:40:55;;;;;;;32.92;21.73;;;;;;;14.05;72.04;99122.28;5006973;28;20108;-81
2022/04/14 04:43:20;;;;;;;32.58;20.88;;;;;;;14.04;71.92;99118.78;5004962;28;20105;-81
2022/04/14 04:45:45;;;;;;;35.65;22.65;;;;;;;14.15;71.37;99119.66;4991709;28;20025;-81
2022/04/14 04:48:10;;;;;;;34.00;19.98;;;;;;;14.14;71.63;99121.53;4990529;28;20445;-81
2022/04/14 04:50:36;;;;;;;31.02;19.67;;;;;;;14.03;71.88;99116.38;4988076;28;20053;-81
2022/04/14 04:53:01;;;;;;;30.92;20.60;;;;;;;14.14;71.59;99128.75;5008736;28;20084;-81
2022/04/14 04:55:27;;;;;;;33.03;19.67;;;;;;;14.09;72.12;99121.50;5005610;28;20414;-81
2022/04/14 04:57:52;;;;;;;32.97;18.30;;;;;;;14.12;71.70;99125.53;4990473;28;20053;-81
2022/04/14 05:00:17;;;;;;;30.63;19.92;;;;;;;14.19;72.06;99131.47;5005045;28;20057;-81
2022/04/14 05:02:43;;;;;;;37.95;18.88;;;;;;;14.02;72.44;99120.16;5019731;28;20034;-81
2022/04/14 05:05:08;;;;;;;31.20;19.77;;;;;;;14.06;72.66;99127.41;5003505;28;20034;-80
2022/04/14 05:07:33;;;;;;;29.98;19.45;;;;;;;14.11;72.21;99134.66;5004811;28;20457;-81
2022/04/14 05:09:59;;;;;;;30.88;20.42;;;;;;;14.04;72.39;99139.47;4998379;28;20038;-81
2022/04/14 05:12:24;;;;;;;29.83;19.63;;;;;;;14.02;72.59;99125.50;5003325;28;20033;-81
2022/04/14 05:14:49;;;;;;;29.95;19.10;;;;;;;14.01;72.47;99132.75;5003071;28;20033;-81
2022/04/14 05:17:15;;;;;;;34.95;20.25;;;;;;;14.03;72.66;99135.16;4986693;28;20501;-81
2022/04/14 05:19:40;;;;;;;30.10;19.42;;;;;;;14.02;72.63;99137.03;4986613;28;20038;-81
2022/04/14 05:22:05;;;;;;;33.80;18.98;;;;;;;13.96;73.19;99143.47;5004179;28;20034;-82
2022/04/14 05:24:31;;;;;;;34.53;18.73;;;;;;;14.02;72.85;99142.41;5005274;28;20038;-81
2022/04/14 05:26:57;;;;;;;35.88;21.20;;;;;;;13.99;73.01;99142.94;5002565;28;20375;-81
2022/04/14 05:29:22;;;;;;;32.25;19.52;;;;;;;13.95;72.90;99139.19;5004289;28;20030;-81
2022/04/14 05:31:48;;;;;;;30.55;18.80;;;;;;;14.06;72.96;99146.19;5021047;28;20100;-81
2022/04/14 05:34:13;;;;;;;27.40;19.33;;;;;;;13.99;73.13;99151.00;5007410;28;20050;-81
2022/04/14 05:36:38;;;;;;;26.67;17.88;;;;;;;13.97;73.40;99157.69;4990980;28;20104;-81
2022/04/14 05:39:03;;;;;;;34.58;19.80;;;;;;;13.95;73.46;99151.78;5002791;28;20033;-81
2022/04/14 05:41:29;;;;;;;33.85;20.38;;;;;;;13.95;73.52;99160.66;4989417;28;20037;-81
2022/04/14 05:43:55;;;;;;;35.72;19.45;;;;;;;13.97;73.29;99152.31;5007172;28;20037;-80
2022/04/14 05:46:20;;;;;;;23.73;17.00;;;;;;;13.99;73.41;99155.56;5004752;28;20479;-80
2022/04/14 05:48:45;;;;;;;28.90;17.52;;;;;;;13.97;73.62;99163.88;5021263;28;20476;-81
2022/04/14 05:51:11;;;;;;;33.42;19.25;;;;;;;13.95;73.66;99160.66;4983633;28;20045;-81
2022/04/14 05:53:36;;;;;;;28.65;18.15;;;;;;;13.94;73.72;99166.25;4986379;28;20030;-81
2022/04/14 05:56:02;;;;;;;27.42;18.02;;;;;;;13.92;73.44;99165.72;5003113;28;20048;-80
2022/04/14 05:58:27;;;;;;;27.10;17.85;;;;;;;13.98;74.24;99167.34;4985586;28;20030;-80
2022/04/14 06:00:52;;;;;;;27.85;18.23;;;;;;;13.89;74.24;99168.94;4986922;28;20050;-80
2022/04/14 06:03:24;;;;;;;31.55;19.15;;;;;;;13.89;73.67;99179.66;5004479;28;20086;-81
2022/04/14 06:05:49;;;;;;;29.13;17.30;;;;;;;13.92;74.05;99182.63;5004040;28;20124;-80
2022/04/14 06:08:14;;;;;;;26.27;18.13;;;;;;;13.90;73.86;99174.03;4999544;28;20117;-81
2022/04/14 06:10:40;;;;;;;29.98;18.00;;;;;;;13.88;73.71;99181.53;5002304;28;20499;-80
2022/04/14 06:13:08;;;;;;;30.20;20.23;;;;;;;13.97;74.05;99190.72;5001364;28;20022;-80
2022/04/14 06:15:34;;;;;;;27.92;19.00;;;;;;;13.90;74.00;99194.69;5002377;28;20037;-81
2022/04/14 06:17:59;;;;;;;31.67;20.25;;;;;;;13.94;73.90;99198.47;5005609;28;20029;-80
2022/04/14 06:20:24;;;;;;;28.40;18.63;;;;;;;14.01;74.00;99189.13;4987351;28;20494;-80
2022/04/14 06:22:50;;;;;;;30.50;18.42;;;;;;;13.90;74.16;99194.69;4983967;28;20185;-81
2022/04/14 06:25:22;;;;;;;29.73;18.05;;;;;;;13.96;74.77;99193.63;5003150;28;20040;-80
2022/04/14 06:27:49;;;;;;;33.53;17.63;;;;;;;13.97;74.21;99195.25;5000242;28;20096;-80
2022/04/14 06:30:16;;;;;;;30.33;18.88;;;;;;;13.94;74.39;99209.19;5018950;28;20037;-80
2022/04/14 06:32:53;;;;;;;30.40;17.17;;;;;;;13.94;74.31;99206.50;5005501;28;20036;-80
2022/04/14 06:35:19;;;;;;;34.25;17.70;;;;;;;13.93;74.32;99205.72;5008349;28;20041;-80
2022/04/14 06:37:44;;;;;;;26.15;16.55;;;;;;;13.89;74.25;99201.13;5006276;28;20030;-80
2022/04/14 06:40:10;;;;;;;34.35;20.05;;;;;;;13.91;74.08;99209.72;4991120;28;20063;-80
2022/04/14 06:42:36;;;;;;;25.80;17.83;;;;;;;13.90;74.08;99214.28;5008292;28;20030;-80
2022/04/14 06:45:01;;;;;;;28.27;17.35;;;;;;;13.90;73.56;99213.47;4988825;28;20022;-81
2022/04/14 06:47:27;;;;;;;34.13;19.17;;;;;;;13.97;74.51;99208.69;4970397;28;20038;-81
2022/04/14 06:49:53;;;;;;;24.35;16.80;;;;;;;13.91;74.31;99213.19;5006550;28;20028;-80
2022/04/14 06:52:19;;;;;;;27.30;17.70;;;;;;;13.93;74.15;99213.78;5012541;28;20029;-80
2022/04/14 06:54:44;;;;;;;26.63;17.33;;;;;;;13.94;74.45;99211.88;5014107;28;20103;-80
2022/04/14 06:57:10;;;;;;;33.03;17.38;;;;;;;13.99;74.32;99214.59;5006940;28;20113;-81
2022/04/14 06:59:35;;;;;;;29.45;18.98;;;;;;;14.02;74.90;99214.09;4993377;28;20040;-79
2022/04/14 07:02:00;;;;;;;38.55;20.63;;;;;;;13.96;76.19;99223.97;5005645;28;20110;-79
2022/04/14 07:04:27;;;;;;;32.50;18.65;;;;;;;14.04;76.02;99218.09;4996797;28;20037;-79
2022/04/14 07:06:52;;;;;;;28.80;19.48;;;;;;;14.08;76.18;99215.72;5011455;28;20545;-79
2022/04/14 07:09:17;;;;;;;29.23;18.05;;;;;;;14.05;76.67;99227.78;5020742;28;20124;-80
2022/04/14 07:11:44;;;;;;;56.15;19.15;;;;;;;14.05;76.84;99222.41;5009985;28;20018;-80
2022/04/14 07:14:09;;;;;;;26.30;18.08;;;;;;;14.05;77.15;99222.41;5013407;28;20386;-80
2022/04/14 07:16:34;;;;;;;24.38;15.63;;;;;;;13.91;77.27;99231.19;5023116;28;20032;-79
2022/04/14 07:19:00;;;;;;;18.85;14.57;;;;;;;14.00;76.52;99233.09;5003416;28;20041;-79
2022/04/14 07:21:25;;;;;;;19.73;13.48;;;;;;;13.95;76.05;99238.47;5006570;28;20434;-79
2022/04/14 07:23:51;;;;;;;20.23;12.65;;;;;;;13.90;75.82;99234.94;5010088;28;20033;-79
2022/04/14 07:26:17;;;;;;;17.13;11.75;;;;;;;13.94;75.27;99241.41;5009374;28;20042;-78
2022/04/14 07:28:42;;;;;;;19.58;11.68;;;;;;;13.87;75.00;99230.91;5001583;28;20037;-78
2022/04/14 07:31:07;;;;;;;21.52;12.07;;;;;;;13.99;74.52;99239.56;4993485;28;20113;-78
2022/04/14 07:33:34;;;;;;;19.33;10.45;;;;;;;13.98;74.32;99237.94;5006589;28;20042;-77
2022/04/14 07:35:59;;;;;;;18.15;10.27;;;;;;;14.03;73.95;99242.53;4974745;28;20051;-77
2022/04/14 07:38:24;;;;;;;15.95;11.15;;;;;;;13.99;74.86;99242.25;4989168;28;20501;-77
2022/04/14 07:40:50;;;;;;;14.88;10.65;;;;;;;14.06;74.47;99245.50;5009130;28;20292;-77
2022/04/14 07:43:15;;;;;;;14.50;9.45;;;;;;;14.05;74.70;99241.19;5005658;28;20438;-77
2022/04/14 07:45:42;;;;;;;14.75;10.18;;;;;;;13.95;74.59;99237.66;5008596;28;20029;-77
2022/04/14 07:48:08;;;;;;;13.45;9.35;;;;;;;14.02;74.54;99244.38;5008192;28;20026;-77
2022/04/14 07:50:34;;;;;;;10.30;8.20;;;;;;;14.08;74.26;99245.25;4999917;28;20092;-78
2022/04/14 07:53:00;;;;;;;9.73;7.65;;;;;;;13.96;74.07;99231.22;5003691;28;20053;-77
2022/04/14 07:55:31;;;;;;;9.88;7.57;;;;;;;13.89;74.58;99244.06;5006129;28;20029;-77
2022/04/14 07:57:58;;;;;;;10.57;7.25;;;;;;;13.94;74.51;99242.22;5013761;28;20025;-77
2022/04/14 08:00:24;;;;;;;7.50;6.65;;;;;;;13.93;73.97;99245.97;5009524;28;20188;-77
2022/04/14 08:02:56;;;;;;;8.32;5.97;;;;;;;13.94;74.25;99257.50;5010081;28;20121;-77
2022/04/14 08:05:29;;;;;;;7.75;6.18;;;;;;;13.91;74.54;99252.66;5007402;28;20041;-77
2022/04/14 08:07:55;;;;;;;7.97;5.70;;;;;;;13.84;74.44;99260.13;5004776;28;20030;-78
2022/04/14 08:10:21;;;;;;;7.22;5.57;;;;;;;13.84;74.03;99255.59;5012146;28;20038;-77
2022/04/14 08:12:47;;;;;;;7.32;4.80;;;;;;;13.85;74.64;99261.72;5017145;28;20032;-77
2022/04/14 08:15:12;;;;;;;8.23;5.95;;;;;;;13.80;74.50;99253.69;5015393;28;20025;-78
2022/04/14 08:17:40;;;;;;;8.18;4.78;;;;;;;13.79;73.92;99265.47;5008231;28;20037;-78
2022/04/14 08:20:06;;;;;;;8.57;5.22;;;;;;;13.82;73.95;99265.78;5006981;28;20560;-78
2022/04/14 08:22:50;;;;;;;9.07;5.75;;;;;;;13.89;74.19;99260.19;5006548;28;20036;-78
2022/04/14 08:25:21;;;;;;;7.18;4.88;;;;;;;13.82;74.25;99259.59;5007015;28;20029;-78
2022/04/14 08:27:47;;;;;;;6.05;4.90;;;;;;;13.89;74.05;99273.59;5010409;28;20025;-77
2022/04/14 08:30:17;;;;;;;8.32;5.03;;;;;;;13.86;73.98;99276.78;5027420;28;20084;-77
2022/04/14 08:32:43;;;;;;;4.93;4.32;;;;;;;13.84;74.18;99270.88;5018547;28;20068;-77
2022/04/14 08:35:10;;;;;;;5.95;4.32;;;;;;;13.82;74.32;99273.00;5008510;28;20030;-77
2022/04/14 08:37:35;;;;;;;4.65;3.72;;;;;;;13.80;73.93;99284.00;5007778;28;20033;-77
2022/04/14 08:40:02;;;;;;;6.90;4.05;;;;;;;13.85;74.04;99275.97;5009073;28;20506;-77
2022/04/14 08:42:52;;;;;;;12.00;4.60;;;;;;;14.02;75.71;99275.81;5008705;28;20120;-78
2022/04/14 08:45:18;;;;;;;11.82;4.57;;;;;;;13.83;76.26;99285.34;5011447;28;20038;-79
2022/04/14 08:47:43;;;;;;;5.70;4.60;;;;;;;13.79;77.36;99284.25;5023604;28;20034;-80
2022/04/14 08:50:13;;;;;;;6.53;4.85;;;;;;;13.85;77.41;99289.38;5011835;28;20030;-80
2022/04/14 08:52:39;;;;;;;5.70;4.68;;;;;;;13.68;78.01;99290.59;5010350;28;20388;-79
2022/04/14 08:55:06;;;;;;;6.72;4.82;;;;;;;13.78;77.08;99293.38;5009589;28;20028;-79
2022/04/14 08:57:35;;;;;;;6.90;3.97;;;;;;;13.64;77.19;99294.88;5005316;28;20117;-79
2022/04/14 09:00:01;;;;;;;4.20;3.58;;;;;;;13.69;76.48;99302.97;5008274;28;20116;-79
2022/04/14 09:02:27;;;;;;;4.35;3.75;;;;;;;13.72;76.38;99308.59;5011409;28;20145;-79
2022/04/14 09:04:55;;;;;;;5.38;3.58;;;;;;;13.78;75.67;99302.22;5017459;28;20389;-79
2022/04/14 09:07:21;;;;;;;5.93;4.10;;;;;;;13.83;75.82;99304.13;5008885;28;20026;-79
2022/04/14 09:09:46;;;;;;;4.65;3.60;;;;;;;13.83;75.86;99301.44;5008882;28;20049;-79
2022/04/14 09:12:12;;;;;;;5.63;4.07;;;;;;;13.82;75.90;99310.56;5007471;28;20042;-79
2022/04/14 09:14:38;;;;;;;3.85;3.25;;;;;;;13.80;75.42;99310.03;5011466;28;20041;-79
2022/04/14 09:17:05;;;;;;;5.28;2.90;;;;;;;13.79;75.24;99294.97;5010194;28;20033;-79
2022/04/14 09:19:32;;;;;;;3.63;3.13;;;;;;;13.80;75.00;99291.25;5011317;28;20041;-79
2022/04/14 09:22:02;;;;;;;3.17;2.78;;;;;;;13.77;75.20;99294.44;4995977;28;20025;-79
2022/04/14 09:24:44;;;;;;;3.70;3.17;;;;;;;13.79;74.65;99293.09;5012959;28;20397;-79
2022/04/14 09:27:31;;;;;;;3.65;3.05;;;;;;;13.82;75.03;99294.47;5007155;28;20385;-79
2022/04/14 09:30:03;;;;;;;4.25;2.83;;;;;;;13.79;74.69;99292.28;4991323;28;20037;-79
2022/04/14 09:32:34;;;;;;;4.57;2.80;;;;;;;13.79;74.77;99287.75;5004449;28;20085;-79
2022/04/14 09:35:06;;;;;;;4.63;2.70;;;;;;;13.82;74.84;99297.97;5016295;28;20034;-79
2022/04/14 09:37:32;;;;;;;2.72;2.53;;;;;;;13.86;75.08;99300.94;5012257;28;20443;-79
2022/04/14 09:40:08;;;;;;;6.45;2.50;;;;;;;13.89;75.21;99301.22;5009892;28;20393;-79
2022/04/14 09:42:35;;;;;;;3.07;2.70;;;;;;;13.89;75.18;99308.47;5011998;28;20405;-79
2022/04/14 09:45:19;;;;;;;3.97;2.20;;;;;;;13.86;75.59;99295.56;5007683;28;20034;-79
2022/04/14 09:47:44;;;;;;;2.95;2.47;;;;;;;13.83;74.76;99288.84;5007182;28;20117;-79
2022/04/14 09:50:31;;;;;;;3.25;2.53;;;;;;;13.87;74.87;99271.16;5009387;28;20133;-79
2022/04/14 09:52:57;;;;;;;3.40;2.50;;;;;;;13.86;74.91;99266.06;5004962;28;20056;-80
2022/04/14 09:55:23;;;;;;;2.10;1.80;;;;;;;13.90;74.33;99280.56;5007438;28;20125;-79
2022/04/14 09:58:09;;;;;;;3.28;2.20;;;;;;;13.95;74.48;99296.69;5026708;28;20552;-79
2022/04/14 10:00:46;;;;;;;2.83;2.50;;;;;;;13.97;74.69;99294.56;5022267;28;20058;-79
2022/04/14 10:03:18;;;;;;;4.95;2.38;;;;;;;13.92;74.72;99300.72;5017527;28;20508;-79
2022/04/14 10:05:48;;;;;;;4.00;2.53;;;;;;;13.98;74.70;99293.47;5028116;28;20030;-79
2022/04/14 10:08:14;;;;;;;2.53;2.08;;;;;;;13.98;74.64;99275.50;5018049;28;20033;-80
2022/04/14 10:10:41;;;;;;;2.25;2.05;;;;;;;13.97;74.34;99273.09;5011045;28;20474;-79
2022/04/14 10:13:09;;;;;;;2.20;2.00;;;;;;;14.01;74.52;99274.19;4994967;28;20324;-79
2022/04/14 10:15:37;;;;;;;4.18;1.92;;;;;;;14.01;74.16;99266.13;5011219;28;20104;-80
2022/04/14 10:18:09;;;;;;;3.25;2.10;;;;;;;14.08;74.35;99250.63;4993266;28;20049;-80
2022/04/14 10:20:37;;;;;;;26.65;5.47;;;;;;;14.20;76.36;99254.69;5011781;28;20033;-80
2022/04/14 10:23:03;;;;;;;5.97;3.50;;;;;;;13.98;78.23;99254.03;5013882;28;20389;-80
2022/04/14 10:25:30;;;;;;;6.82;3.90;;;;;;;14.00;77.62;99261.84;5017359;28;20022;-80
2022/04/14 10:28:00;;;;;;;4.90;3.67;;;;;;;14.03;77.53;99266.69;4995909;28;20397;-80
2022/04/14 10:30:26;;;;;;;5.93;3.65;;;;;;;14.00;78.70;99259.94;5009985;28;20592;-80
2022/04/14 10:32:56;;;;;;;6.00;3.80;;;;;;;14.21;77.35;99275.13;5008525;28;20049;-80
2022/04/14 10:35:25;;;;;;;4.68;3.30;;;;;;;14.15;77.55;99275.34;5006649;28;20030;-80
2022/04/14 10:37:55;;;;;;;5.95;3.20;;;;;;;14.13;76.75;99270.22;5007881;28;20684;-80
2022/04/14 10:40:21;;;;;;;3.78;3.25;;;;;;;14.17;76.83;99274.03;5010936;28;20040;-80
2022/04/14 10:42:52;;;;;;;5.45;3.35;;;;;;;14.32;77.03;99270.63;4992375;28;20025;-80
2022/04/14 10:45:22;;;;;;;6.25;4.20;;;;;;;14.35;76.54;99266.63;5008863;28;20052;-80
2022/04/14 10:47:58;;;;;;;4.93;3.08;;;;;;;14.42;77.07;99264.47;5009734;28;20108;-80
2022/04/14 10:50:32;;;;;;;6.13;3.28;;;;;;;14.53;76.77;99275.00;5011566;28;20030;-80
2022/04/14 10:53:01;;;;;;;3.33;3.03;;;;;;;14.54;76.63;99273.94;4992653;28;20044;-80
2022/04/14 10:55:43;;;;;;;4.97;3.28;;;;;;;14.60;76.17;99267.50;5018871;28;20506;-80
2022/04/14 10:58:27;;;;;;;3.80;3.40;;;;;;;14.70;76.30;99269.44;5008494;28;20033;-80
2022/04/14 11:00:53;;;;;;;3.88;3.47;;;;;;;14.68;76.33;99272.34;5012008;28;20061;-80
2022/04/14 11:03:18;;;;;;;4.05;3.60;;;;;;;14.71;75.95;99271.03;5013297;28;20042;-80
2022/04/14 11:05:46;;;;;;;9.23;3.88;;;;;;;14.74;76.30;99268.59;5019383;28;20014;-80
2022/04/14 11:08:32;;;;;;;5.07;3.05;;;;;;;14.83;75.98;99264.34;4988586;28;20224;-81
2022/04/14 11:11:16;;;;;;;7.07;3.77;;;;;;;14.90;76.28;99256.81;5009238;28;20164;-81
2022/04/14 11:13:50;;;;;;;3.75;3.17;;;;;;;14.95;76.19;99258.72;5004347;28;20120;-81
2022/04/14 11:16:44;;;;;;;7.88;4.38;;;;;;;14.98;76.25;99268.94;5006230;28;20038;-80
2022/04/14 11:19:19;;;;;;;11.70;4.25;;;;;;;15.05;76.25;99266.78;5022643;28;20470;-81
2022/04/14 11:22:01;;;;;;;5.80;4.93;;;;;;;15.10;75.64;99263.31;5010408;28;20073;-81